Time;durP1;ratioP1;P1;durP2;ratioP2;P2;SDS_P1;SDS_P2;PMS_P1;PMS_P2;Temp;Humidity;BMP_temperature;BMP_pressure;BME280_temperature;BME280_humidity;BME280_pressure;Samples;Min_cycle;Max_cycle;Signal;HPM_P1;HPM_P2
2021/08/19 00:01:09;;;;;;;3.93;2.40;;;15.80;99.90;;;16.88;60.21;94361.41;5000457;28;20208;-71
2021/08/19 00:03:35;;;;;;;2.33;2.10;;;15.60;99.90;;;16.81;60.56;94346.81;4989480;28;20669;-71
2021/08/19 00:06:01;;;;;;;3.23;2.63;;;15.60;99.90;;;16.73;60.75;94355.47;4994329;28;20212;-70
2021/08/19 00:08:27;;;;;;;2.40;2.20;;;15.70;99.90;;;16.72;60.55;94351.25;5004186;28;20613;-70
2021/08/19 00:10:55;;;;;;;2.77;2.30;;;15.90;99.90;;;16.73;60.84;94358.97;5001777;28;20297;-71
2021/08/19 00:13:21;;;;;;;3.00;2.03;;;15.50;99.90;;;16.72;60.80;94353.91;4988508;28;20188;-71
2021/08/19 00:15:47;;;;;;;3.10;2.00;;;16.00;99.90;;;16.84;61.09;94359.59;4989684;28;20209;-71
2021/08/19 00:18:13;;;;;;;4.03;2.43;;;15.80;99.90;;;16.85;60.91;94361.22;5005809;28;20196;-71
2021/08/19 00:20:39;;;;;;;2.37;2.13;;;15.80;99.90;;;16.75;60.90;94343.44;5003166;28;20201;-71
2021/08/19 00:23:05;;;;;;;2.53;2.13;;;15.80;99.90;;;16.81;60.95;94354.84;4995996;28;20199;-71
2021/08/19 00:25:32;;;;;;;2.30;1.87;;;15.80;99.90;;;16.75;61.14;94354.13;5006846;28;20196;-71
2021/08/19 00:27:59;;;;;;;3.90;2.20;;;15.80;99.90;;;16.76;61.16;94354.91;4990694;28;20283;-71
2021/08/19 00:30:25;;;;;;;2.47;2.20;;;15.80;99.90;;;16.79;61.41;94348.97;5005593;28;20195;-71
2021/08/19 00:32:53;;;;;;;2.50;2.20;;;15.80;99.90;;;16.86;61.24;94352.88;5014568;28;20541;-71
2021/08/19 00:35:21;;;;;;;2.30;2.10;;;15.80;99.90;;;16.84;61.38;94355.06;4992505;28;20207;-71
2021/08/19 00:37:47;;;;;;;2.20;2.00;;;15.80;99.90;;;16.76;61.58;94344.19;4992270;28;20199;-71
2021/08/19 00:40:14;;;;;;;3.07;2.30;;;15.80;99.90;;;16.84;61.40;94360.41;5003913;28;20712;-70
2021/08/19 00:42:40;;;;;;;2.90;2.50;;;15.80;99.90;;;16.70;61.43;94354.19;5011407;28;20954;-71
2021/08/19 00:45:08;;;;;;;2.80;2.50;;;15.80;99.90;;;16.84;61.05;94362.28;4992118;28;20198;-70
2021/08/19 00:47:38;;;;;;;5.17;2.27;;;15.80;99.90;;;16.70;61.68;94348.84;4997380;28;21039;-71
2021/08/19 00:50:05;;;;;;;2.97;2.30;;;15.80;99.90;;;16.70;61.86;94348.84;5002201;28;20196;-71
2021/08/19 00:52:32;;;;;;;6.30;2.50;;;15.70;99.90;;;16.74;62.12;94351.72;5012562;28;20345;-71
2021/08/19 00:55:00;;;;;;;3.57;2.40;;;15.70;99.90;;;16.68;61.83;94353.69;4991417;28;20607;-71
2021/08/19 00:57:26;;;;;;;4.83;2.27;;;15.60;99.90;;;16.65;62.00;94351.59;5005142;28;20206;-71
2021/08/19 00:59:53;;;;;;;5.73;2.70;;;15.70;99.90;;;16.64;62.05;94344.66;5007378;28;20230;-71
2021/08/19 01:02:21;;;;;;;3.30;2.40;;;15.60;99.90;;;16.67;61.93;94349.44;5001649;28;20980;-71
2021/08/19 01:04:48;;;;;;;3.03;2.20;;;15.70;99.90;;;16.69;62.02;94343.75;4994610;28;20278;-71
2021/08/19 01:07:15;;;;;;;3.10;2.40;;;15.80;99.90;;;16.69;62.30;94341.88;5010531;28;20261;-69
2021/08/19 01:09:45;;;;;;;2.70;2.40;;;15.70;99.90;;;16.77;62.27;94348.47;5009459;28;20833;-69
2021/08/19 01:12:13;;;;;;;2.73;2.53;;;15.80;99.90;;;16.74;62.14;94341.03;4990047;28;20200;-69
2021/08/19 01:14:43;;;;;;;3.97;2.33;;;15.70;99.90;;;16.71;62.33;94339.72;4997411;28;20222;-69
2021/08/19 01:17:15;;;;;;;2.63;2.43;;;15.70;99.90;;;16.66;62.60;94347.03;5010059;28;20225;-71
2021/08/19 01:19:45;;;;;;;4.53;2.30;;;15.70;99.90;;;16.69;62.50;94336.53;4996266;28;20196;-70
2021/08/19 01:22:12;;;;;;;3.10;2.50;;;15.70;99.90;;;16.68;62.74;94331.50;5006716;28;20534;-70
2021/08/19 01:24:38;;;;;;;3.03;2.30;;;15.70;99.90;;;16.53;62.72;94347.72;4996012;28;20197;-71
2021/08/19 01:27:04;;;;;;;3.97;2.20;;;15.50;99.90;;;16.53;62.61;94339.69;5008039;28;20228;-70
2021/08/19 01:29:30;;;;;;;2.93;2.57;;;15.50;99.90;;;16.40;62.90;94334.00;5004782;28;20999;-70
2021/08/19 01:32:02;;;;;;;3.43;2.40;;;15.40;99.90;;;16.36;62.89;94354.38;5006467;28;20223;-71
2021/08/19 01:34:29;;;;;;;3.83;2.20;;;15.40;99.90;;;16.39;62.90;94342.31;4992219;28;20183;-71
2021/08/19 01:36:56;;;;;;;3.73;2.60;;;15.40;99.90;;;16.47;62.84;94343.53;5005756;28;20201;-70
2021/08/19 01:39:26;;;;;;;2.57;2.20;;;15.40;99.90;;;16.51;62.99;94341.88;5006455;28;20209;-70
2021/08/19 01:41:52;;;;;;;2.87;2.30;;;15.50;99.90;;;16.62;63.00;94343.38;5007042;28;20193;-71
2021/08/19 01:44:18;;;;;;;3.17;2.30;;;15.50;99.90;;;16.57;63.10;94338.88;4999451;28;20201;-70
2021/08/19 01:47:02;;;;;;;2.67;2.07;;;15.40;99.90;;;16.50;63.04;94343.75;5006142;28;20208;-70
2021/08/19 01:49:35;;;;;;;3.60;2.20;;;15.70;99.90;;;16.51;63.46;94334.66;5007467;28;20194;-71
2021/08/19 01:52:04;;;;;;;2.97;2.37;;;15.50;99.90;;;16.54;63.31;94338.63;5013045;28;20181;-70
2021/08/19 01:54:30;;;;;;;2.17;1.90;;;15.50;99.90;;;16.53;63.49;94337.03;4994961;28;20360;-71
2021/08/19 01:56:56;;;;;;;2.33;2.13;;;15.60;99.90;;;16.51;63.45;94336.53;4992068;28;20285;-71
2021/08/19 01:59:31;;;;;;;3.83;2.67;;;15.40;99.90;;;16.55;63.28;94342.91;5011189;28;20239;-70
2021/08/19 02:02:02;;;;;;;3.30;2.60;;;15.30;99.90;;;16.54;63.58;94344.78;4990276;28;20193;-70
2021/08/19 02:04:29;;;;;;;5.67;2.50;;;16.20;99.90;;;16.54;63.58;94343.97;5004603;28;20191;-71
2021/08/19 02:07:00;;;;;;;2.40;2.20;;;16.30;99.90;;;16.59;63.38;94339.38;5008310;28;20216;-71
2021/08/19 02:09:26;;;;;;;2.73;2.53;;;15.50;99.90;;;16.51;63.48;94333.84;5009004;28;20191;-71
2021/08/19 02:11:53;;;;;;;3.13;2.20;;;15.60;99.90;;;16.58;63.75;94337.00;5008429;28;20546;-71
2021/08/19 02:14:19;;;;;;;2.57;2.13;;;15.50;99.90;;;16.65;63.92;94332.06;5005451;28;20206;-71
2021/08/19 02:16:45;;;;;;;2.87;2.40;;;15.60;99.90;;;16.58;63.48;94328.97;5003580;28;20254;-71
2021/08/19 02:19:12;;;;;;;2.70;2.50;;;15.60;99.90;;;16.61;63.98;94333.72;5003656;28;20246;-71
2021/08/19 02:21:38;;;;;;;2.93;2.33;;;15.60;99.90;;;16.65;63.60;94334.75;5007761;28;20301;-71
2021/08/19 02:24:04;;;;;;;2.60;2.40;;;16.10;99.90;;;16.58;64.04;94324.41;4988792;28;20208;-71
2021/08/19 02:26:30;;;;;;;2.53;2.30;;;15.90;99.90;;;16.58;63.89;94323.63;4989556;28;20222;-70
2021/08/19 02:28:58;;;;;;;3.83;2.53;;;15.60;99.90;;;16.61;63.94;94326.50;4987155;28;20203;-71
2021/08/19 02:31:24;;;;;;;2.73;2.53;;;15.70;99.90;;;16.68;63.99;94323.47;4992323;28;20289;-70
2021/08/19 02:33:51;;;;;;;2.70;2.50;;;;;;;16.74;64.00;94333.00;5019772;28;20196;-71
2021/08/19 02:36:17;;;;;;;4.80;2.43;;;15.70;99.90;;;16.75;64.24;94329.25;5008227;28;20228;-71
2021/08/19 02:38:43;;;;;;;2.33;2.10;;;15.80;99.90;;;16.69;64.23;94327.69;5005046;28;20208;-71
2021/08/19 02:41:09;;;;;;;3.17;2.27;;;15.70;99.90;;;16.71;64.48;94322.88;5016452;28;20190;-71
2021/08/19 02:43:42;;;;;;;3.47;2.30;;;15.80;99.90;;;16.65;64.24;94321.38;5006603;28;20240;-70
2021/08/19 02:46:11;;;;;;;3.33;2.50;;;15.70;99.90;;;16.69;64.27;94333.06;4983822;28;20267;-70
2021/08/19 02:48:37;;;;;;;3.90;2.50;;;15.70;99.90;;;16.64;64.54;94333.94;5005845;28;20226;-71
2021/08/19 02:51:05;;;;;;;4.13;2.70;;;15.70;99.90;;;16.65;64.72;94326.72;5004532;28;20193;-71
2021/08/19 02:53:31;;;;;;;3.20;2.83;;;15.70;99.90;;;16.62;64.49;94325.41;4992819;28;20217;-71
2021/08/19 02:55:57;;;;;;;4.43;2.50;;;15.40;99.90;;;16.58;64.74;94319.06;5014441;28;20263;-70
2021/08/19 02:58:23;;;;;;;2.70;2.50;;;15.60;99.90;;;16.62;64.56;94322.72;4992189;28;20225;-71
2021/08/19 03:00:49;;;;;;;2.90;2.50;;;15.70;99.90;;;16.67;64.72;94314.63;5004194;28;20556;-71
2021/08/19 03:03:15;;;;;;;3.30;2.67;;;15.70;99.90;;;16.65;64.71;94316.81;5007674;28;20211;-70
2021/08/19 03:05:41;;;;;;;3.33;2.67;;;15.70;99.90;;;16.58;64.89;94315.59;4992632;28;20217;-71
2021/08/19 03:08:07;;;;;;;2.63;2.33;;;15.70;99.90;;;16.64;64.93;94311.75;5009032;28;20264;-71
2021/08/19 03:10:33;;;;;;;3.27;2.90;;;15.70;99.90;;;16.69;64.89;94300.94;4986501;28;20210;-71
2021/08/19 03:12:59;;;;;;;3.20;2.90;;;15.70;99.90;;;16.64;65.00;94303.72;5000012;28;20496;-71
2021/08/19 03:15:25;;;;;;;4.40;2.87;;;15.70;99.90;;;16.56;65.03;94304.34;5004620;28;20227;-70
2021/08/19 03:17:50;;;;;;;3.90;2.93;;;15.60;99.90;;;16.63;64.92;94307.47;5005711;28;20205;-70
2021/08/19 03:20:17;;;;;;;3.30;3.00;;;15.70;99.90;;;16.59;65.02;94303.78;4999678;28;20564;-70
2021/08/19 03:22:43;;;;;;;3.60;2.60;;;15.60;99.90;;;16.58;65.08;94303.00;5008593;28;20226;-71
2021/08/19 03:25:11;;;;;;;3.07;2.50;;;15.60;99.90;;;16.58;65.11;94307.56;4988890;28;20247;-71
2021/08/19 03:27:38;;;;;;;2.67;2.47;;;15.60;99.90;;;16.53;65.39;94302.25;5032710;28;20218;-71
2021/08/19 03:30:05;;;;;;;2.80;2.57;;;15.60;99.90;;;16.54;65.28;94299.28;5004099;28;20197;-71
2021/08/19 03:32:35;;;;;;;2.70;2.50;;;15.60;99.90;;;16.57;65.26;94314.78;5002149;28;20250;-71
2021/08/19 03:35:01;;;;;;;2.53;2.33;;;15.60;99.90;;;16.59;65.54;94301.91;4990068;28;20687;-71
2021/08/19 03:37:29;;;;;;;2.60;2.40;;;15.70;99.90;;;16.61;65.58;94313.13;4998636;28;20230;-71
2021/08/19 03:39:55;;;;;;;3.57;2.50;;;15.60;99.90;;;16.50;65.46;94297.47;5003518;28;20617;-71
2021/08/19 03:42:21;;;;;;;2.60;2.40;;;15.60;99.90;;;16.56;65.44;94296.34;5011350;28;20252;-71
2021/08/19 03:44:49;;;;;;;3.00;2.73;;;15.60;99.90;;;16.59;65.43;94298.41;5005107;28;20198;-71
2021/08/19 03:47:15;;;;;;;4.03;2.47;;;15.60;99.90;;;16.55;65.38;94297.41;5009890;28;20219;-71
2021/08/19 03:49:41;;;;;;;2.90;2.30;;;16.50;99.90;;;16.59;65.79;94293.06;4988274;28;20626;-71
2021/08/19 03:52:07;;;;;;;3.93;2.90;;;15.70;99.90;;;16.50;65.77;94289.44;4984035;28;20791;-71
2021/08/19 03:54:34;;;;;;;3.37;2.67;;;15.50;99.90;;;16.50;65.84;94290.25;5006336;28;20288;-71
2021/08/19 03:57:02;;;;;;;2.83;2.53;;;15.60;99.90;;;16.53;65.74;94289.66;5004808;28;20211;-71
2021/08/19 03:59:28;;;;;;;3.60;2.70;;;15.60;99.90;;;16.57;65.79;94296.06;5007295;28;20856;-71
2021/08/19 04:01:54;;;;;;;3.30;2.60;;;15.70;99.90;;;16.57;65.80;94292.56;5002284;28;20200;-71
2021/08/19 04:04:20;;;;;;;3.57;2.93;;;15.60;99.90;;;16.58;65.93;94292.31;5007095;28;20204;-71
2021/08/19 04:06:46;;;;;;;3.00;2.70;;;15.60;99.90;;;16.51;65.88;94302.53;5009453;28;20218;-71
2021/08/19 04:09:12;;;;;;;3.70;2.90;;;15.60;99.90;;;16.56;65.97;94290.97;5007514;28;20200;-71
2021/08/19 04:11:38;;;;;;;3.23;2.60;;;15.60;99.90;;;16.53;66.04;94294.22;4987230;28;20213;-71
2021/08/19 04:14:03;;;;;;;3.17;2.70;;;15.60;99.90;;;16.54;65.96;94298.47;5004199;28;20543;-71
2021/08/19 04:16:32;;;;;;;3.17;2.50;;;15.60;99.90;;;16.62;66.02;94295.97;4984558;28;20563;-71
2021/08/19 04:18:58;;;;;;;2.50;2.30;;;15.70;99.90;;;16.62;66.08;94297.88;5027160;28;20198;-71
2021/08/19 04:21:23;;;;;;;3.10;2.80;;;15.70;99.90;;;16.61;66.17;94296.25;5007196;28;20614;-71
2021/08/19 04:23:49;;;;;;;3.20;2.47;;;15.70;99.90;;;16.64;66.40;94298.34;5008112;28;20204;-71
2021/08/19 04:26:18;;;;;;;3.47;3.00;;;15.70;99.90;;;16.63;66.08;94294.88;5017428;28;20309;-71
2021/08/19 04:28:44;;;;;;;3.20;2.87;;;15.70;99.90;;;16.62;66.17;94298.63;4986314;28;20228;-71
2021/08/19 04:31:12;;;;;;;3.17;2.83;;;15.70;99.90;;;16.60;66.54;94286.63;5007005;28;20217;-71
2021/08/19 04:33:41;;;;;;;2.43;2.23;;;15.70;99.90;;;16.65;66.40;94292.72;5008060;28;20583;-71
2021/08/19 04:36:07;;;;;;;6.60;2.73;;;15.70;99.90;;;16.57;66.57;94285.34;5023577;28;20226;-71
2021/08/19 04:38:33;;;;;;;4.10;2.80;;;15.60;99.90;;;16.61;66.13;94289.03;5019299;28;20231;-71
2021/08/19 04:41:01;;;;;;;3.67;3.00;;;15.70;99.90;;;16.53;66.52;94288.84;5024235;28;20193;-71
2021/08/19 04:43:27;;;;;;;3.97;3.10;;;15.70;99.90;;;16.52;66.39;94293.41;5009634;28;20226;-71
2021/08/19 04:45:53;;;;;;;2.70;2.50;;;15.60;99.90;;;16.60;66.51;94290.13;5009179;28;20210;-71
2021/08/19 04:48:19;;;;;;;3.00;2.57;;;15.60;99.90;;;16.55;66.70;94294.72;4992776;28;20193;-71
2021/08/19 04:50:46;;;;;;;3.20;2.63;;;15.60;99.90;;;16.56;66.73;94288.31;5009555;28;20228;-71
2021/08/19 04:53:12;;;;;;;3.13;2.83;;;15.60;99.90;;;16.57;66.59;94293.38;5006419;28;20198;-70
2021/08/19 04:55:38;;;;;;;3.37;3.07;;;15.60;99.90;;;16.54;66.58;94282.44;5017012;28;20200;-70
2021/08/19 04:58:06;;;;;;;3.73;3.10;;;15.60;99.90;;;16.52;67.15;94290.72;4992456;28;20202;-70
2021/08/19 05:00:32;;;;;;;3.33;2.70;;;15.60;99.90;;;16.60;66.59;94286.63;5006689;28;20281;-71
2021/08/19 05:02:58;;;;;;;3.30;2.60;;;15.70;99.90;;;16.59;67.05;94290.41;5007197;28;20198;-71
2021/08/19 05:05:24;;;;;;;3.20;2.90;;;15.60;99.90;;;16.52;66.80;94293.41;5005324;28;20221;-71
2021/08/19 05:07:55;;;;;;;4.70;2.70;;;15.60;99.90;;;16.54;66.96;94303.84;5002344;28;20246;-71
2021/08/19 05:10:21;;;;;;;3.20;2.90;;;15.60;99.90;;;16.66;66.79;94294.28;5007661;28;20195;-71
2021/08/19 05:12:46;;;;;;;3.43;3.13;;;15.70;99.90;;;16.72;67.16;94297.72;4988891;28;20231;-71
2021/08/19 05:15:12;;;;;;;3.87;2.90;;;15.70;99.90;;;16.77;67.11;94298.41;5012378;28;20201;-71
2021/08/19 05:17:38;;;;;;;2.50;2.30;;;15.80;99.90;;;16.85;66.87;94308.44;5002226;28;20214;-71
2021/08/19 05:20:06;;;;;;;2.90;2.40;;;15.90;99.90;;;16.97;67.33;94310.66;5013300;28;20655;-71
2021/08/19 05:22:34;;;;;;;3.40;2.53;;;16.00;99.90;;;17.05;67.20;94306.53;5021005;28;20208;-71
2021/08/19 05:25:00;;;;;;;3.30;2.80;;;16.00;99.90;;;17.09;67.28;94300.25;5006337;28;20278;-71
2021/08/19 05:27:26;;;;;;;4.47;2.80;;;16.10;99.90;;;17.17;67.35;94309.50;5006046;28;20221;-71
2021/08/19 05:29:52;;;;;;;2.90;2.70;;;16.20;99.90;;;17.19;67.35;94313.47;4983422;28;20196;-72
2021/08/19 05:32:19;;;;;;;3.83;2.50;;;16.30;99.90;;;17.32;67.18;94323.44;5005868;28;20221;-71
2021/08/19 05:34:45;;;;;;;3.30;2.37;;;16.40;99.90;;;17.36;67.17;94313.69;5006239;28;20198;-70
2021/08/19 05:37:11;;;;;;;3.30;2.93;;;16.50;99.90;;;17.46;67.28;94314.63;5006885;28;20339;-70
2021/08/19 05:39:37;;;;;;;4.80;2.80;;;16.50;99.90;;;17.60;67.22;94310.88;5000711;28;20206;-70
2021/08/19 05:42:03;;;;;;;5.43;2.80;;;16.70;99.90;;;17.56;67.32;94327.88;5005772;28;20783;-70
2021/08/19 05:44:29;;;;;;;3.43;2.50;;;17.10;99.90;;;17.58;67.49;94323.00;5006780;28;20703;-70
2021/08/19 05:46:55;;;;;;;3.47;2.53;;;16.90;99.90;;;17.59;67.30;94322.72;5005749;28;20318;-70
2021/08/19 05:49:21;;;;;;;2.43;2.23;;;16.80;99.90;;;17.66;67.33;94330.34;5001001;28;20200;-70
2021/08/19 05:51:47;;;;;;;4.10;2.37;;;16.80;99.90;;;17.75;67.36;94318.63;5003719;28;20664;-70
2021/08/19 05:54:13;;;;;;;2.70;2.50;;;16.50;99.90;;;17.74;67.47;94325.06;5000290;28;20289;-70
2021/08/19 05:56:39;;;;;;;3.77;2.63;;;16.90;99.90;;;17.82;67.12;94315.56;5021063;28;20258;-70
2021/08/19 05:59:07;;;;;;;2.83;2.40;;;16.90;99.90;;;17.86;67.35;94328.03;5008503;28;20543;-70
2021/08/19 06:01:36;;;;;;;3.17;2.17;;;16.90;99.90;;;17.78;67.52;94304.63;4988480;28;20561;-72
2021/08/19 06:04:04;;;;;;;2.63;2.43;;;16.90;99.90;;;17.84;67.40;94324.06;4999387;28;20709;-70
2021/08/19 06:06:30;;;;;;;3.00;2.30;;;16.90;99.90;;;17.94;67.63;94315.81;5007675;28;20215;-71
2021/08/19 06:08:56;;;;;;;3.10;2.53;;;17.00;99.90;;;18.07;67.52;94324.94;4999937;28;20196;-71
2021/08/19 06:11:22;;;;;;;2.80;2.40;;;17.20;99.90;;;17.94;67.59;94302.41;5009645;28;20723;-71
2021/08/19 06:13:50;;;;;;;5.23;2.60;;;17.00;99.90;;;17.94;67.34;94313.94;5007649;28;20266;-71
2021/08/19 06:16:17;;;;;;;3.90;2.50;;;17.00;99.90;;;17.96;67.20;94313.66;5000358;28;20265;-71
2021/08/19 06:18:43;;;;;;;2.70;2.30;;;17.00;99.90;;;18.17;67.33;94325.53;5004895;28;20254;-71
2021/08/19 06:21:10;;;;;;;3.33;2.57;;;17.30;99.90;;;18.12;67.31;94319.50;5005936;28;20208;-71
2021/08/19 06:23:36;;;;;;;5.53;2.73;;;17.30;99.90;;;18.37;67.56;94327.78;5000777;28;20204;-72
2021/08/19 06:26:01;;;;;;;4.27;2.53;;;17.50;99.90;;;18.42;67.34;94314.25;5010165;28;20223;-71
2021/08/19 06:28:27;;;;;;;3.03;2.17;;;17.60;99.90;;;18.55;67.53;94319.91;5002466;28;20202;-71
2021/08/19 06:30:53;;;;;;;2.30;1.97;;;17.70;99.90;;;18.33;67.48;94324.09;4969380;28;20261;-70
2021/08/19 06:33:22;;;;;;;2.40;2.20;;;17.50;99.90;;;18.56;67.32;94324.19;5003320;28;20194;-70
2021/08/19 06:35:48;;;;;;;2.87;2.00;;;17.70;99.90;;;18.79;67.07;94325.78;4996776;28;20189;-70
2021/08/19 06:38:14;;;;;;;2.17;1.93;;;17.90;99.90;;;19.01;67.25;94320.41;5019578;28;20214;-69
2021/08/19 06:40:42;;;;;;;4.00;2.13;;;18.20;99.90;;;19.34;67.29;94327.09;4985393;28;20195;-69
2021/08/19 06:43:10;;;;;;;3.92;2.45;;;18.50;99.90;;;19.12;67.10;94327.13;4970501;28;20544;-69
2021/08/19 06:45:36;;;;;;;2.50;1.93;;;18.50;99.90;;;19.41;67.28;94332.06;5007239;28;20217;-69
2021/08/19 06:48:02;;;;;;;2.40;2.03;;;18.80;99.90;;;19.59;67.13;94331.03;5023333;28;20313;-70
2021/08/19 06:50:28;;;;;;;3.17;2.13;;;18.90;99.90;;;19.78;67.08;94312.75;4999875;28;20192;-69
2021/08/19 06:52:54;;;;;;;1.97;1.83;;;19.10;99.90;;;19.62;67.14;94308.91;5005439;28;20189;-69
2021/08/19 06:55:23;;;;;;;2.50;2.13;;;19.00;99.90;;;19.57;66.87;94308.25;4985574;28;20200;-70
2021/08/19 06:57:50;;;;;;;2.47;2.23;;;18.90;99.90;;;19.67;66.96;94326.81;4991340;28;21721;-69
2021/08/19 07:00:16;;;;;;;4.30;2.60;;;19.00;99.90;;;19.96;66.77;94321.69;4983728;28;20213;-70
2021/08/19 07:02:42;;;;;;;3.05;2.20;;;19.30;99.90;;;20.06;66.89;94326.78;5008808;28;20433;-70
2021/08/19 07:05:11;;;;;;;2.03;1.73;;;19.40;99.90;;;20.63;66.59;94324.03;5002414;28;20195;-71
2021/08/19 07:07:37;;;;;;;2.77;2.10;;;19.90;99.90;;;20.96;66.58;94303.59;4987249;28;20685;-71
2021/08/19 07:10:06;;;;;;;2.43;1.90;;;20.20;99.90;;;20.84;66.57;94288.06;5003504;28;20238;-70
2021/08/19 07:12:33;;;;;;;2.57;2.13;;;20.20;99.90;;;21.10;66.40;94284.56;5002529;28;20193;-72
2021/08/19 07:14:58;;;;;;;2.93;2.30;;;20.30;99.90;;;21.49;66.25;94312.06;5004694;28;20193;-72
2021/08/19 07:17:25;;;;;;;2.40;2.20;;;20.70;99.90;;;21.14;66.25;94272.84;4982866;28;21867;-73
2021/08/19 07:19:51;;;;;;;2.90;1.90;;;20.50;99.90;;;21.29;66.38;94283.09;5008754;28;20237;-72
2021/08/19 07:22:17;;;;;;;3.47;2.30;;;20.70;99.90;;;21.38;65.95;94297.34;5008105;28;20441;-69
2021/08/19 07:24:43;;;;;;;3.70;2.30;;;20.90;99.90;;;21.64;65.95;94288.38;5005210;28;20213;-70
2021/08/19 07:27:10;;;;;;;2.40;2.20;;;21.00;99.90;;;22.10;66.03;94315.31;5002185;28;22075;-71
2021/08/19 07:29:35;;;;;;;2.20;2.00;;;21.40;99.90;;;22.02;66.00;94286.47;5004407;28;20207;-71
2021/08/19 07:32:02;;;;;;;2.13;1.70;;;21.40;99.90;;;21.98;65.71;94294.44;5010857;28;20682;-71
2021/08/19 07:34:28;;;;;;;2.40;2.20;;;21.40;99.90;;;21.90;65.56;94297.16;5001748;28;20431;-69
2021/08/19 07:36:57;;;;;;;2.20;2.00;;;21.50;99.90;;;21.69;65.39;94294.38;4976017;28;20201;-71
2021/08/19 07:39:23;;;;;;;2.47;2.27;;;20.80;99.90;;;21.11;65.37;94294.25;5018376;28;20629;-71
2021/08/19 07:41:49;;;;;;;2.67;2.40;;;20.70;99.90;;;21.35;65.35;94283.72;5006303;28;20190;-71
2021/08/19 07:44:15;;;;;;;4.50;2.65;;;20.90;99.90;;;20.87;65.46;94290.13;5003927;28;20446;-72
2021/08/19 07:46:41;;;;;;;3.90;2.47;;;21.00;99.90;;;20.99;65.21;94306.44;5002149;28;20271;-71
2021/08/19 07:49:07;;;;;;;4.40;1.97;;;20.70;99.90;;;20.98;65.03;94296.75;5002648;28;20271;-70
2021/08/19 07:51:34;;;;;;;3.13;1.80;;;20.50;99.90;;;21.22;65.07;94312.44;4995921;28;20307;-71
2021/08/19 07:54:01;;;;;;;1.83;1.67;;;20.60;99.90;;;21.41;65.19;94288.63;4987017;28;20240;-72
2021/08/19 07:56:30;;;;;;;4.60;1.87;;;20.00;99.90;;;20.80;65.14;94354.47;4980590;28;20304;-73
2021/08/19 07:58:58;;;;;;;2.97;1.73;;;20.30;99.90;;;20.98;65.07;94296.75;5006584;28;20200;-71
2021/08/19 08:01:26;;;;;;;2.07;1.83;;;20.30;99.90;;;21.07;64.66;94301.34;5005035;28;20300;-72
2021/08/19 08:03:53;;;;;;;1.93;1.63;;;20.40;99.90;;;21.26;64.95;94299.91;4999492;28;20789;-73
2021/08/19 08:06:19;;;;;;;2.07;1.63;;;20.50;99.90;;;21.44;64.44;94298.75;4986916;28;20232;-73
2021/08/19 08:08:45;;;;;;;2.03;1.70;;;20.70;99.90;;;21.37;64.62;94290.38;5006303;28;20204;-71
2021/08/19 08:11:11;;;;;;;2.50;1.50;;;20.70;99.90;;;21.25;64.41;94300.25;4987114;28;20212;-73
2021/08/19 08:13:37;;;;;;;2.40;1.50;;;20.70;99.90;;;21.60;64.52;94307.09;4995779;28;22173;-70
2021/08/19 08:16:06;;;;;;;1.37;1.27;;;21.00;99.90;;;21.77;64.60;94308.94;5010982;28;20199;-73
2021/08/19 08:18:32;;;;;;;2.37;1.50;;;21.10;99.90;;;21.80;64.49;94306.38;5005456;28;20200;-71
2021/08/19 08:21:01;;;;;;;1.60;1.50;;;21.20;99.90;;;22.15;64.08;94311.66;5009991;28;20197;-71
2021/08/19 08:23:32;;;;;;;2.13;1.60;;;21.50;99.90;;;22.17;64.19;94315.59;5001531;28;20563;-72
2021/08/19 08:25:59;;;;;;;1.47;1.27;;;21.60;99.90;;;21.73;63.96;94302.59;4991233;28;20203;-71
2021/08/19 08:28:30;;;;;;;1.30;1.20;;;21.20;99.90;;;21.82;64.06;94311.47;5007550;28;20322;-71
2021/08/19 08:30:58;;;;;;;2.20;1.13;;;21.30;99.90;;;22.08;63.49;94333.78;4992984;28;20220;-72
2021/08/19 08:33:25;;;;;;;3.53;1.70;;;21.50;99.90;;;22.38;63.85;94348.06;5008809;28;20244;-72
2021/08/19 08:35:51;;;;;;;2.33;1.90;;;22.30;99.90;;;22.81;63.83;94334.28;4992508;28;20189;-71
2021/08/19 08:38:21;;;;;;;2.97;2.50;;;22.20;99.90;;;22.69;63.26;94324.19;4974849;28;20678;-71
2021/08/19 08:40:53;;;;;;;3.87;2.10;;;22.20;99.90;;;22.73;63.71;94348.66;5007293;28;20185;-72
2021/08/19 08:43:21;;;;;;;2.37;2.17;;;22.20;99.90;;;22.39;63.26;94291.00;4988126;28;20255;-72
2021/08/19 08:45:50;;;;;;;2.57;2.03;;;21.90;99.90;;;22.19;63.43;94291.78;5008447;28;20204;-72
2021/08/19 08:48:25;;;;;;;1.87;1.70;;;21.80;99.90;;;22.21;63.32;94367.84;4990796;28;20203;-72
2021/08/19 08:50:54;;;;;;;3.30;1.70;;;21.60;99.90;;;22.95;63.19;94346.41;5013564;28;20192;-73
2021/08/19 08:53:21;;;;;;;2.23;1.90;;;22.20;99.90;;;23.27;63.17;94308.91;5007617;28;20189;-72
2021/08/19 08:55:47;;;;;;;1.97;1.83;;;22.60;99.90;;;23.14;62.62;94297.25;4986147;28;20201;-71
2021/08/19 08:58:14;;;;;;;1.97;1.70;;;22.60;99.90;;;23.00;63.00;94340.78;4992122;28;20596;-71
2021/08/19 09:00:44;;;;;;;2.20;1.90;;;22.50;99.90;;;23.39;62.58;94338.69;5007254;28;20297;-71
2021/08/19 09:03:15;;;;;;;2.47;1.80;;;22.80;99.90;;;23.96;62.39;94344.94;4987667;28;20284;-71
2021/08/19 09:05:49;;;;;;;1.97;1.30;;;23.30;99.90;;;24.43;62.17;94326.34;4988825;28;20196;-71
2021/08/19 09:08:22;;;;;;;1.50;1.40;;;23.90;99.90;;;24.63;62.37;94330.03;5018793;28;20700;-71
2021/08/19 09:10:50;;;;;;;2.27;1.57;;;24.20;99.90;;;24.27;62.08;94297.56;5009373;28;20251;-72
2021/08/19 09:13:23;;;;;;;1.23;1.13;;;24.00;99.90;;;24.36;62.07;94350.50;4991900;28;20212;-71
2021/08/19 09:15:50;;;;;;;1.43;1.30;;;24.00;99.90;;;24.19;62.13;94296.53;5022520;28;20191;-72
2021/08/19 09:18:37;;;;;;;2.13;1.30;;;23.90;99.90;;;23.75;61.54;94333.38;5006786;28;20192;-71
2021/08/19 09:21:21;;;;;;;2.23;1.10;;;23.50;99.90;;;23.18;61.59;94337.94;4988302;28;20200;-71
2021/08/19 09:24:13;;;;;;;1.63;1.30;;;22.90;99.90;;;23.49;61.71;94344.50;5001371;28;20543;-71
2021/08/19 09:26:43;;;;;;;1.20;1.10;;;23.00;99.90;;;24.12;61.41;94357.81;5015045;28;20217;-71
2021/08/19 09:29:26;;;;;;;1.30;1.20;;;24.50;99.90;;;24.76;60.67;94382.31;5008237;28;20180;-70
2021/08/19 09:32:09;;;;;;;1.23;1.10;;;25.30;99.90;;;25.76;60.81;94386.75;5004220;28;20215;-70
2021/08/19 09:34:37;;;;;;;1.87;1.23;;;26.50;99.90;;;26.02;60.46;94332.75;5003661;28;20724;-70
2021/08/19 09:37:08;;;;;;;3.17;1.23;;;26.70;99.90;;;26.83;60.48;94367.31;5007109;28;20193;-70
2021/08/19 09:39:54;;;;;;;2.30;1.33;;;26.30;99.90;;;26.39;60.32;94346.88;4989624;28;20201;-70
2021/08/19 09:42:38;;;;;;;1.67;1.20;;;26.30;99.90;;;27.42;59.84;94412.53;5007976;28;20202;-70
2021/08/19 09:45:22;;;;;;;2.17;1.20;;;27.20;99.90;;;30.89;59.25;94460.19;5001942;28;20640;-70
2021/08/19 09:47:52;;;;;;;1.10;1.00;;;30.60;99.90;;;33.29;59.03;94463.09;5013773;28;20216;-70
2021/08/19 09:50:23;;;;;;;1.37;1.27;;;33.30;95.30;;;35.05;58.42;94424.94;5005179;28;20200;-70
2021/08/19 09:52:52;;;;;;;1.70;1.60;;;35.30;89.70;;;35.20;57.93;94334.59;5006702;28;20652;-71
2021/08/19 09:55:27;;;;;;;1.27;1.23;;;36.00;80.20;;;36.14;57.06;94386.31;5005972;28;20189;-70
2021/08/19 09:58:00;;;;;;;1.40;1.30;;;37.60;74.40;;;35.85;56.82;94322.41;5007427;28;20196;-68
2021/08/19 10:00:27;;;;;;;1.20;1.10;;;37.70;69.70;;;35.24;56.19;94305.03;5006598;28;20208;-70
2021/08/19 10:02:54;;;;;;;1.40;1.30;;;37.40;67.90;;;34.46;55.77;94289.22;4997117;28;20224;-68
2021/08/19 10:05:23;;;;;;;1.40;1.30;;;36.60;68.80;;;32.56;55.51;94186.53;5006783;28;20807;-70
2021/08/19 10:07:49;;;;;;;1.40;1.30;;;35.00;68.80;;;31.16;55.41;94172.41;5000403;28;20248;-70
2021/08/19 10:10:16;;;;;;;1.50;1.40;;;33.50;71.20;;;30.54;54.57;94358.66;5020013;28;20199;-70
2021/08/19 10:12:45;;;;;;;2.37;1.60;;;31.80;76.70;;;28.94;54.97;94235.16;5001089;28;20189;-70
2021/08/19 10:15:12;;;;;;;1.70;1.40;;;30.30;79.90;;;28.40;54.14;94257.41;5005919;28;20351;-70
2021/08/19 10:17:51;;;;;;;1.80;1.40;;;29.20;84.00;;;28.23;54.41;94298.84;4997435;28;20189;-70
2021/08/19 10:20:24;;;;;;;1.83;1.67;;;28.80;88.40;;;28.01;54.00;94298.47;4989801;28;20250;-70
2021/08/19 10:22:51;;;;;;;2.10;1.90;;;28.40;88.40;;;27.83;53.53;94267.41;5007557;28;20193;-70